createdAt,value
2022-11-12T00:00:25.923Z,8.00
2022-11-12T00:02:52.866Z,8.10
2022-11-12T00:05:25.919Z,8.00
2022-11-12T00:07:52.888Z,8.00
2022-11-12T00:10:25.942Z,8.00
2022-11-12T00:12:53.062Z,7.90
2022-11-12T00:15:26.961Z,7.80
2022-11-12T00:18:00.921Z,7.70
2022-11-12T00:20:27.794Z,7.70
2022-11-12T00:23:00.930Z,7.60
2022-11-12T00:25:27.857Z,7.80
2022-11-12T00:27:54.858Z,7.70
2022-11-12T00:30:27.909Z,7.70
2022-11-12T00:32:54.749Z,7.70
2022-11-12T00:35:27.970Z,7.80
2022-11-12T00:37:55.651Z,7.80
2022-11-12T00:40:28.985Z,7.70
2022-11-12T00:42:55.916Z,7.70
2022-11-12T00:45:29.966Z,7.70
2022-11-12T00:47:56.939Z,7.70
2022-11-12T00:50:30.980Z,7.60
2022-11-12T00:53:03.952Z,7.70
2022-11-12T00:55:30.888Z,7.70
2022-11-12T00:58:06.927Z,7.70
2022-11-12T01:00:33.814Z,7.80
2022-11-12T01:03:06.978Z,7.80
2022-11-12T01:05:33.850Z,7.70
2022-11-12T01:08:06.957Z,7.70
2022-11-12T01:10:36.256Z,7.50
2022-11-12T01:13:09.932Z,7.30
2022-11-12T01:15:41.504Z,7.20
2022-11-12T01:18:14.957Z,7.20
2022-11-12T01:20:41.841Z,7.20
2022-11-12T01:23:08.694Z,7.10
2022-11-12T01:25:45.087Z,7.10
2022-11-12T01:28:12.059Z,7.10
2022-11-12T01:30:45.147Z,7.10
2022-11-12T01:33:12.119Z,7.20
2022-11-12T01:35:45.957Z,7.30
2022-11-12T01:38:12.977Z,7.40
2022-11-12T01:40:39.879Z,7.50
2022-11-12T01:43:19.978Z,7.50
2022-11-12T01:45:48.383Z,7.50
2022-11-12T01:48:45.983Z,7.50
2022-11-12T01:51:12.906Z,7.50
2022-11-12T01:53:52.005Z,7.40
2022-11-12T01:56:18.929Z,7.30
2022-11-12T01:58:53.056Z,7.20
2022-11-12T02:01:20.144Z,7.20
2022-11-12T02:03:54.073Z,7.20
2022-11-12T02:06:21.226Z,7.30
2022-11-12T02:08:54.996Z,7.30
2022-11-12T02:11:28.987Z,7.10
2022-11-12T02:14:02.011Z,7.00
2022-11-12T02:16:35.877Z,7.00
2022-11-12T02:19:09.970Z,7.00
2022-11-12T02:21:36.983Z,7.10
2022-11-12T02:24:19.013Z,7.20
2022-11-12T02:26:54.000Z,7.30
2022-11-12T02:29:27.983Z,7.30
2022-11-12T02:32:00.997Z,7.20
2022-11-12T02:34:34.024Z,7.20
2022-11-12T02:37:07.012Z,7.20
2022-11-12T02:39:34.014Z,7.10
2022-11-12T02:42:07.002Z,7.10
2022-11-12T02:44:33.889Z,7.10
2022-11-12T02:47:07.021Z,7.00
2022-11-12T02:49:33.883Z,7.10
2022-11-12T02:52:00.780Z,7.10
2022-11-12T02:54:33.993Z,7.00
2022-11-12T02:57:00.853Z,6.90
2022-11-12T02:59:37.082Z,6.90
2022-11-12T03:02:04.010Z,7.00
2022-11-12T03:04:37.014Z,6.90
2022-11-12T03:07:10.080Z,6.90
2022-11-12T03:09:43.078Z,6.80
2022-11-12T03:12:10.025Z,6.70
2022-11-12T03:14:43.092Z,6.80
2022-11-12T03:17:10.013Z,6.90
2022-11-12T03:19:43.021Z,6.70
2022-11-12T03:22:09.899Z,6.70
2022-11-12T03:24:43.073Z,6.70
2022-11-12T03:27:09.973Z,6.70
2022-11-12T03:29:43.006Z,6.60
2022-11-12T03:32:09.880Z,6.70
2022-11-12T03:34:43.031Z,6.70
2022-11-12T03:37:09.913Z,6.60
2022-11-12T03:39:43.012Z,6.60
2022-11-12T03:42:09.928Z,6.60
2022-11-12T03:44:43.093Z,6.60
2022-11-12T03:47:10.013Z,6.50
2022-11-12T03:49:43.060Z,6.50
2022-11-12T03:52:10.066Z,6.50
2022-11-12T03:54:43.112Z,6.60
2022-11-12T03:57:10.019Z,6.60
2022-11-12T03:59:43.030Z,6.60
2022-11-12T04:02:09.938Z,6.50
2022-11-12T04:04:43.074Z,6.40
2022-11-12T04:07:16.063Z,6.30
2022-11-12T04:09:42.949Z,6.30
2022-11-12T04:12:16.036Z,6.30
2022-11-12T04:14:42.920Z,6.20
2022-11-12T04:17:16.037Z,6.30
2022-11-12T04:19:42.937Z,6.30
2022-11-12T04:22:18.044Z,6.20
2022-11-12T04:24:44.941Z,6.20
2022-11-12T04:27:30.041Z,6.20
2022-11-12T04:29:56.987Z,6.20
2022-11-12T04:32:31.025Z,6.20
2022-11-12T04:35:04.125Z,6.30
2022-11-12T04:37:32.247Z,6.20
2022-11-12T04:40:06.037Z,6.20
2022-11-12T04:42:39.102Z,6.20
2022-11-12T04:45:12.183Z,6.30
2022-11-12T04:47:47.098Z,6.30
2022-11-12T04:50:16.970Z,6.40
2022-11-12T04:52:44.153Z,6.40
2022-11-12T04:55:18.137Z,6.30
2022-11-12T04:57:45.032Z,6.50
2022-11-12T05:00:19.085Z,6.50
2022-11-12T05:02:46.063Z,6.60
2022-11-12T05:05:19.119Z,6.50
2022-11-12T05:07:45.981Z,6.50
2022-11-12T05:10:19.040Z,6.40
2022-11-12T05:12:45.966Z,6.40
2022-11-12T05:15:19.077Z,6.40
2022-11-12T05:17:46.029Z,6.50
2022-11-12T05:20:20.111Z,6.50
2022-11-12T05:23:05.509Z,6.40
2022-11-12T05:25:44.066Z,6.30
2022-11-12T05:28:10.963Z,6.30
2022-11-12T05:30:44.083Z,6.10
2022-11-12T05:33:11.018Z,6.20
2022-11-12T05:35:51.081Z,6.40
2022-11-12T05:38:17.919Z,6.30
2022-11-12T05:40:52.116Z,6.30
2022-11-12T05:43:25.099Z,6.40
2022-11-12T05:45:51.985Z,6.60
2022-11-12T05:48:25.161Z,6.60
2022-11-12T05:51:12.074Z,6.70
2022-11-12T05:53:47.114Z,6.70
2022-11-12T05:56:14.084Z,6.70
2022-11-12T05:58:47.105Z,6.90
2022-11-12T06:01:14.026Z,6.80
2022-11-12T06:03:47.139Z,6.70
2022-11-12T06:06:14.188Z,6.80
2022-11-12T06:08:48.105Z,6.70
2022-11-12T06:11:15.006Z,6.70
2022-11-12T06:13:41.885Z,6.60
2022-11-12T06:16:15.185Z,6.80
2022-11-12T06:18:48.165Z,6.60
2022-11-12T06:21:21.116Z,6.50
2022-11-12T06:23:56.289Z,6.20
2022-11-12T06:26:31.116Z,6.30
2022-11-12T06:29:04.147Z,6.20
2022-11-12T06:31:37.149Z,6.20
2022-11-12T06:34:04.031Z,6.20
2022-11-12T06:36:37.142Z,6.00
2022-11-12T06:39:04.230Z,6.00
2022-11-12T06:41:38.134Z,6.10
2022-11-12T06:44:05.302Z,6.20
2022-11-12T06:46:39.126Z,6.20
2022-11-12T06:49:06.126Z,6.20
2022-11-12T06:51:39.128Z,6.30
2022-11-12T06:54:06.558Z,6.40
2022-11-12T06:56:40.288Z,6.40
2022-11-12T06:59:07.290Z,6.70
2022-11-12T07:01:34.279Z,6.80
2022-11-12T07:04:08.156Z,7.00
2022-11-12T07:06:35.119Z,7.00
2022-11-12T07:09:09.174Z,7.00
2022-11-12T07:11:42.144Z,7.10
2022-11-12T07:14:16.148Z,7.20
2022-11-12T07:16:43.020Z,7.30
2022-11-12T07:19:16.173Z,7.40
2022-11-12T07:21:43.110Z,7.50
2022-11-12T07:24:16.173Z,7.60
2022-11-12T07:26:47.301Z,7.70
2022-11-12T07:29:42.557Z,7.70
2022-11-12T07:32:08.039Z,7.80
2022-11-12T07:34:41.133Z,7.90
2022-11-12T07:37:08.090Z,7.90
2022-11-12T07:39:41.190Z,7.80
2022-11-12T07:42:08.078Z,8.00
2022-11-12T07:44:41.154Z,8.20
2022-11-12T07:47:14.168Z,8.30
2022-11-12T07:49:41.109Z,8.40
2022-11-12T07:52:14.157Z,8.30
2022-11-12T07:54:41.075Z,8.50
2022-11-12T07:57:14.183Z,8.70
2022-11-12T07:59:45.932Z,8.90
2022-11-12T08:02:20.172Z,9.10
2022-11-12T08:04:47.104Z,9.20
2022-11-12T08:07:20.310Z,9.30
2022-11-12T08:09:47.346Z,9.50
2022-11-12T08:12:21.168Z,9.50
2022-11-12T08:14:48.110Z,9.70
2022-11-12T08:17:17.368Z,9.70
2022-11-12T08:19:52.739Z,9.90
2022-11-12T08:22:19.703Z,10.20
2022-11-12T08:24:53.203Z,10.40
2022-11-12T08:27:20.108Z,10.60
2022-11-12T08:29:53.188Z,10.60
2022-11-12T08:32:20.184Z,10.80
2022-11-12T08:34:54.167Z,10.70
2022-11-12T08:37:21.189Z,10.80
2022-11-12T08:40:01.181Z,11.00
2022-11-12T08:42:28.059Z,11.00
2022-11-12T08:45:01.154Z,11.00
2022-11-12T08:47:34.160Z,11.20
2022-11-12T08:50:01.061Z,11.20
2022-11-12T08:52:34.176Z,11.40
2022-11-12T08:55:01.147Z,11.50
2022-11-12T08:57:34.257Z,11.50
2022-11-12T09:00:01.846Z,11.80
2022-11-12T09:02:35.223Z,12.00
2022-11-12T09:05:02.243Z,12.10
2022-11-12T09:07:48.628Z,12.10
2022-11-12T09:10:23.285Z,12.40
2022-11-12T09:12:53.686Z,12.20
2022-11-12T09:15:37.605Z,12.30
2022-11-12T09:18:08.263Z,12.30
2022-11-12T09:20:42.220Z,12.60
2022-11-12T09:23:12.024Z,12.80
2022-11-12T09:25:46.197Z,12.90
2022-11-12T09:28:18.075Z,12.90
2022-11-12T09:30:56.601Z,13.00
2022-11-12T09:33:30.794Z,13.10
2022-11-12T09:36:07.253Z,13.20
2022-11-12T09:38:41.334Z,13.20
2022-11-12T09:41:27.266Z,13.40
2022-11-12T09:43:57.460Z,13.40
2022-11-12T09:47:00.921Z,13.60
2022-11-12T09:49:52.350Z,13.60
2022-11-12T09:52:29.194Z,13.80
2022-11-12T09:55:35.242Z,13.80
2022-11-12T09:58:02.183Z,13.90
2022-11-12T10:00:29.120Z,14.00
2022-11-12T10:03:08.237Z,14.30
2022-11-12T10:05:56.245Z,14.50
2022-11-12T10:08:39.738Z,14.50
2022-11-12T10:11:49.434Z,14.50
2022-11-12T10:14:31.327Z,14.80
2022-11-12T10:17:28.314Z,14.80
2022-11-12T10:20:24.603Z,15.00
2022-11-12T10:23:22.303Z,15.30
2022-11-12T10:25:51.001Z,15.20
2022-11-12T10:28:42.236Z,15.50
2022-11-12T10:31:17.472Z,15.40
2022-11-12T10:33:51.241Z,15.50
2022-11-12T10:36:34.381Z,15.60
2022-11-12T10:39:08.252Z,15.60
2022-11-12T10:41:41.253Z,15.60
2022-11-12T10:44:13.779Z,15.60
2022-11-12T10:46:47.257Z,15.60
2022-11-12T10:49:14.351Z,15.60
2022-11-12T10:51:48.431Z,15.60
2022-11-12T10:54:27.168Z,15.60
2022-11-12T10:57:01.246Z,15.80
2022-11-12T10:59:28.138Z,15.80
2022-11-12T11:02:06.323Z,15.70
2022-11-12T11:04:35.929Z,15.70
2022-11-12T11:07:32.269Z,15.80
2022-11-12T11:10:02.612Z,15.80
2022-11-12T11:12:38.283Z,15.80
2022-11-12T11:15:29.248Z,15.70
2022-11-12T11:18:02.231Z,15.80
2022-11-12T11:20:39.241Z,15.80
2022-11-12T11:23:33.250Z,15.90
2022-11-12T11:26:16.291Z,16.00
2022-11-12T11:29:06.330Z,16.10
2022-11-12T11:31:59.765Z,16.20
2022-11-12T11:35:11.287Z,16.10
2022-11-12T11:38:38.313Z,16.20
2022-11-12T11:41:29.135Z,16.30
2022-11-12T11:44:14.036Z,16.20
2022-11-12T11:47:06.573Z,16.20
2022-11-12T11:50:07.268Z,16.30
2022-11-12T11:53:00.190Z,16.20
2022-11-12T11:56:07.285Z,16.40
2022-11-12T11:59:17.480Z,16.10
2022-11-12T12:02:28.298Z,16.30
2022-11-12T12:05:29.330Z,16.30
2022-11-12T12:08:05.982Z,16.30
2022-11-12T12:11:08.676Z,16.40
2022-11-12T12:14:09.942Z,16.40
2022-11-12T12:16:49.352Z,16.40
2022-11-12T12:19:29.312Z,16.50
2022-11-12T12:21:56.244Z,16.50
2022-11-12T12:24:39.315Z,16.40
2022-11-12T12:27:11.809Z,16.40
2022-11-12T12:30:03.321Z,16.60
2022-11-12T12:32:39.316Z,16.50
2022-11-12T12:35:38.319Z,16.60
2022-11-12T12:38:29.583Z,16.50
2022-11-12T12:41:29.357Z,16.50
2022-11-12T12:44:02.218Z,16.50
2022-11-12T12:46:37.354Z,16.50
2022-11-12T12:49:04.341Z,16.40
2022-11-12T12:51:39.312Z,16.50
2022-11-12T12:54:35.748Z,16.50
2022-11-12T12:57:32.340Z,16.40
2022-11-12T13:00:33.865Z,16.30
2022-11-12T13:03:07.333Z,16.40
2022-11-12T13:05:37.747Z,16.40
2022-11-12T13:08:25.999Z,16.50
2022-11-12T13:10:53.179Z,16.60
2022-11-12T13:13:31.731Z,16.60
2022-11-12T13:15:59.621Z,16.50
2022-11-12T13:18:45.401Z,16.50
2022-11-12T13:21:13.015Z,16.60
2022-11-12T13:24:04.355Z,16.60
2022-11-12T13:26:49.662Z,16.60
2022-11-12T13:29:45.357Z,16.70
2022-11-12T13:32:34.173Z,16.70
2022-11-12T13:35:21.376Z,16.70
2022-11-12T13:38:09.337Z,16.70
2022-11-12T13:41:26.389Z,16.70
2022-11-12T13:43:53.321Z,16.80
2022-11-12T13:46:40.368Z,16.80
2022-11-12T13:49:11.481Z,16.80
2022-11-12T13:51:52.334Z,16.80
2022-11-12T13:54:39.163Z,16.80
2022-11-12T13:57:32.398Z,16.70
2022-11-12T14:00:18.173Z,16.70
2022-11-12T14:02:53.424Z,16.60
2022-11-12T14:05:35.394Z,16.70
2022-11-12T14:08:50.383Z,16.60
2022-11-12T14:11:34.392Z,16.60
2022-11-12T14:14:57.705Z,16.60
2022-11-12T14:17:40.416Z,16.50
2022-11-12T14:20:12.391Z,16.50
2022-11-12T14:22:50.411Z,16.50
2022-11-12T14:25:23.608Z,16.50
2022-11-12T14:27:59.386Z,16.50
2022-11-12T14:30:28.142Z,16.40
2022-11-12T14:33:06.382Z,16.30
2022-11-12T14:35:40.181Z,16.20
2022-11-12T14:38:38.441Z,16.20
2022-11-12T14:41:33.904Z,16.10
2022-11-12T14:44:13.835Z,16.00
2022-11-12T14:46:55.134Z,16.00
2022-11-12T14:49:43.983Z,16.00
2022-11-12T14:52:33.043Z,15.90
2022-11-12T14:55:32.490Z,15.90
2022-11-12T14:58:00.332Z,15.70
2022-11-12T15:00:46.476Z,15.50
2022-11-12T15:03:20.560Z,15.50
2022-11-12T15:06:02.424Z,15.40
2022-11-12T15:08:31.687Z,15.40
2022-11-12T15:11:53.427Z,15.50
2022-11-12T15:14:22.823Z,15.50
2022-11-12T15:16:56.439Z,15.50
2022-11-12T15:19:25.109Z,15.40
2022-11-12T15:22:07.411Z,15.40
2022-11-12T15:24:42.461Z,15.30
2022-11-12T15:27:46.430Z,15.20
2022-11-12T15:30:28.174Z,15.20
2022-11-12T15:33:34.434Z,15.20
2022-11-12T15:36:01.528Z,15.20
2022-11-12T15:38:42.433Z,15.10
2022-11-12T15:41:25.135Z,15.00
2022-11-12T15:43:58.416Z,14.90
2022-11-12T15:46:25.305Z,14.80
2022-11-12T15:48:58.474Z,14.60
2022-11-12T15:51:25.388Z,14.60
2022-11-12T15:53:58.554Z,14.50
2022-11-12T15:56:26.150Z,14.40
2022-11-12T15:58:59.451Z,14.40
2022-11-12T16:01:26.552Z,14.20
2022-11-12T16:04:00.438Z,14.10
2022-11-12T16:06:27.464Z,14.10
2022-11-12T16:08:54.404Z,14.00
2022-11-12T16:11:27.484Z,14.00
2022-11-12T16:14:00.467Z,13.90
2022-11-12T16:16:27.386Z,13.90
2022-11-12T16:18:54.398Z,13.70
2022-11-12T16:21:27.483Z,13.70
2022-11-12T16:23:54.721Z,13.80
2022-11-12T16:26:34.462Z,13.60
2022-11-12T16:29:01.379Z,13.70
2022-11-12T16:31:34.482Z,13.60
2022-11-12T16:34:01.420Z,13.60
2022-11-12T16:36:28.363Z,13.70
2022-11-12T16:39:01.464Z,13.50
2022-11-12T16:41:28.521Z,13.50
2022-11-12T16:44:02.466Z,13.40
2022-11-12T16:46:38.584Z,13.40
2022-11-12T16:49:12.490Z,13.20
2022-11-12T16:51:39.425Z,13.10
2022-11-12T16:54:13.536Z,13.00
2022-11-12T16:56:40.592Z,13.10
2022-11-12T16:59:14.470Z,12.90
2022-11-12T17:01:47.504Z,12.90
2022-11-12T17:04:15.280Z,12.90
2022-11-12T17:06:48.619Z,12.80
2022-11-12T17:09:16.446Z,12.90
2022-11-12T17:11:49.505Z,12.90
2022-11-12T17:14:16.515Z,12.90
2022-11-12T17:16:50.522Z,12.80
2022-11-12T17:19:17.792Z,12.70
2022-11-12T17:21:51.489Z,12.60
2022-11-12T17:24:25.511Z,12.50
2022-11-12T17:26:52.460Z,12.50
2022-11-12T17:29:19.525Z,12.50
2022-11-12T17:31:56.602Z,12.50
2022-11-12T17:34:30.509Z,12.50
2022-11-12T17:37:04.659Z,12.50
2022-11-12T17:39:31.625Z,12.50
2022-11-12T17:42:05.570Z,12.50
2022-11-12T17:44:32.629Z,12.70
2022-11-12T17:47:06.569Z,12.50
2022-11-12T17:49:33.481Z,12.50
2022-11-12T17:52:06.507Z,12.60
2022-11-12T17:54:33.416Z,12.40
2022-11-12T17:57:06.533Z,12.50
2022-11-12T17:59:33.475Z,12.30
2022-11-12T18:02:06.579Z,12.30
2022-11-12T18:04:33.535Z,12.40
2022-11-12T18:07:00.670Z,12.40
2022-11-12T18:09:34.638Z,12.50
2022-11-12T18:12:01.702Z,12.50
2022-11-12T18:14:28.617Z,12.50
2022-11-12T18:17:03.512Z,12.40
2022-11-12T18:19:30.497Z,12.30
2022-11-12T18:22:03.524Z,12.20
2022-11-12T18:24:30.572Z,12.20
2022-11-12T18:27:04.544Z,12.10
2022-11-12T18:29:31.425Z,12.20
2022-11-12T18:32:04.531Z,12.20
2022-11-12T18:34:32.028Z,12.10
2022-11-12T18:37:05.527Z,12.00
2022-11-12T18:39:42.627Z,11.90
2022-11-12T18:42:09.659Z,11.80
2022-11-12T18:44:43.697Z,11.90
2022-11-12T18:47:17.557Z,11.80
2022-11-12T18:49:44.539Z,11.80
2022-11-12T18:52:17.530Z,11.70
2022-11-12T18:54:44.555Z,11.80
2022-11-12T18:57:17.528Z,11.70
2022-11-12T18:59:51.545Z,11.50
2022-11-12T19:02:18.663Z,11.70
2022-11-12T19:04:45.798Z,11.80
2022-11-12T19:07:19.642Z,11.90
2022-11-12T19:09:46.698Z,12.00
2022-11-12T19:12:20.511Z,12.00
2022-11-12T19:14:47.451Z,12.00
2022-11-12T19:17:14.476Z,11.70
2022-11-12T19:19:47.590Z,11.50
2022-11-12T19:22:14.589Z,11.40
2022-11-12T19:24:47.687Z,11.40
2022-11-12T19:27:14.704Z,11.50
2022-11-12T19:29:41.676Z,11.50
2022-11-12T19:32:15.599Z,11.50
2022-11-12T19:34:48.600Z,11.70
2022-11-12T19:37:38.829Z,11.90
2022-11-12T19:40:06.930Z,11.80
2022-11-12T19:42:40.551Z,11.90
2022-11-12T19:45:14.640Z,12.00
2022-11-12T19:47:41.574Z,12.00
2022-11-12T19:50:15.595Z,11.80
2022-11-12T19:52:48.560Z,11.80
2022-11-12T19:55:22.608Z,11.80
2022-11-12T19:57:49.532Z,11.90
2022-11-12T20:00:17.086Z,11.80
2022-11-12T20:02:50.675Z,11.70
2022-11-12T20:05:17.689Z,11.70
2022-11-12T20:07:53.583Z,11.70
2022-11-12T20:10:20.584Z,11.60
2022-11-12T20:12:53.594Z,11.70
2022-11-12T20:15:20.601Z,11.60
2022-11-12T20:17:47.600Z,11.50
2022-11-12T20:20:21.627Z,11.60
2022-11-12T20:22:48.549Z,11.70
2022-11-12T20:25:21.616Z,11.40
2022-11-12T20:27:54.616Z,11.40
2022-11-12T20:30:27.669Z,11.40
2022-11-12T20:33:07.596Z,11.20
2022-11-12T20:35:36.039Z,11.00
2022-11-12T20:38:10.676Z,10.90
2022-11-12T20:40:37.664Z,10.80
2022-11-12T20:43:10.632Z,10.80
2022-11-12T20:45:37.632Z,10.80
2022-11-12T20:48:11.608Z,10.80
2022-11-12T20:50:40.048Z,10.80
2022-11-12T20:53:17.639Z,10.80
2022-11-12T20:55:44.624Z,10.70
2022-11-12T20:58:18.681Z,10.70
2022-11-12T21:00:45.567Z,10.50
2022-11-12T21:03:12.524Z,10.40
2022-11-12T21:05:45.639Z,10.30
2022-11-12T21:08:12.581Z,10.30
2022-11-12T21:10:45.618Z,10.20
2022-11-12T21:13:12.659Z,10.10
2022-11-12T21:15:45.636Z,10.10
2022-11-12T21:18:12.725Z,10.00
2022-11-12T21:20:46.670Z,10.00
2022-11-12T21:23:13.639Z,10.00
2022-11-12T21:25:40.709Z,9.90
2022-11-12T21:28:14.676Z,10.00
2022-11-12T21:30:44.062Z,10.10
2022-11-12T21:33:18.623Z,10.10
2022-11-12T21:35:52.492Z,10.20
2022-11-12T21:38:25.874Z,10.10
2022-11-12T21:41:14.636Z,10.20
2022-11-12T21:43:49.653Z,10.30
2022-11-12T21:46:25.113Z,10.20
2022-11-12T21:49:00.646Z,10.30
2022-11-12T21:51:29.880Z,10.30
2022-11-12T21:54:11.636Z,10.40
2022-11-12T21:56:38.584Z,10.30
2022-11-12T21:59:12.681Z,10.20
2022-11-12T22:01:39.626Z,10.10
2022-11-12T22:04:18.138Z,10.00
2022-11-12T22:06:45.504Z,9.90
2022-11-12T22:09:18.683Z,9.80
2022-11-12T22:11:45.642Z,9.60
2022-11-12T22:14:18.655Z,9.60
2022-11-12T22:16:45.676Z,9.70
2022-11-12T22:19:12.588Z,9.60
2022-11-12T22:21:46.667Z,9.40
2022-11-12T22:24:20.684Z,9.30
2022-11-12T22:26:53.675Z,9.30
2022-11-12T22:29:20.634Z,9.20
2022-11-12T22:31:53.740Z,9.00
2022-11-12T22:34:20.688Z,9.00
2022-11-12T22:36:53.736Z,9.00
2022-11-12T22:39:20.733Z,9.00
2022-11-12T22:41:54.747Z,8.80
2022-11-12T22:44:23.654Z,8.80
2022-11-12T22:46:57.846Z,8.80
2022-11-12T22:49:24.869Z,8.80
2022-11-12T22:51:51.863Z,8.70
2022-11-12T22:54:25.683Z,8.70
2022-11-12T22:56:58.702Z,8.60
2022-11-12T22:59:25.662Z,8.60
2022-11-12T23:01:58.771Z,8.60
2022-11-12T23:04:25.776Z,8.60
2022-11-12T23:06:52.869Z,8.70
2022-11-12T23:09:26.654Z,8.60
2022-11-12T23:11:53.657Z,8.60
2022-11-12T23:14:27.684Z,8.60
2022-11-12T23:16:54.734Z,8.50
2022-11-12T23:19:28.683Z,8.50
2022-11-12T23:22:06.677Z,8.40
2022-11-12T23:24:34.737Z,8.40
2022-11-12T23:27:01.712Z,8.50
2022-11-12T23:29:34.684Z,8.30
2022-11-12T23:32:01.669Z,8.40
2022-11-12T23:34:34.724Z,8.40
2022-11-12T23:37:01.653Z,8.30
2022-11-12T23:39:34.704Z,8.30
2022-11-12T23:42:01.742Z,8.30
2022-11-12T23:44:36.014Z,8.30
2022-11-12T23:47:02.976Z,8.20
2022-11-12T23:49:29.968Z,8.20
2022-11-12T23:52:03.691Z,8.20
2022-11-12T23:54:30.589Z,8.20
2022-11-12T23:57:03.720Z,8.20
2022-11-12T23:59:36.741Z,8.30
